Time;durP1;ratioP1;P1;durP2;ratioP2;P2;SDS_P1;SDS_P2;PMS_P1;PMS_P2;Temp;Humidity;BMP_temperature;BMP_pressure;BME280_temperature;BME280_humidity;BME280_pressure;Samples;Min_cycle;Max_cycle;Signal;HPM_P1;HPM_P2
2021/06/01 00:00:23;;;;;;;14.23;7.88;;;11.60;87.40;;;;;;5008700;28;20024;-67
2021/06/01 00:02:50;;;;;;;10.63;8.05;;;11.80;87.60;;;;;;5007623;28;20379;-66
2021/06/01 00:05:17;;;;;;;12.05;7.63;;;11.90;84.80;;;;;;5007840;28;20620;-70
2021/06/01 00:07:44;;;;;;;13.02;8.18;;;12.10;85.40;;;;;;5008011;28;20028;-66
2021/06/01 00:10:12;;;;;;;15.52;7.80;;;12.20;84.30;;;;;;5007397;28;20072;-66
2021/06/01 00:12:39;;;;;;;11.98;7.20;;;12.10;84.40;;;;;;5012167;28;20041;-65
2021/06/01 00:15:07;;;;;;;10.68;7.78;;;12.10;83.90;;;;;;5007947;28;20102;-66
2021/06/01 00:17:34;;;;;;;13.75;8.25;;;12.10;84.30;;;;;;5007044;28;20030;-69
2021/06/01 00:20:03;;;;;;;10.95;7.55;;;12.30;84.60;;;;;;5006000;28;20462;-65
2021/06/01 00:22:30;;;;;;;12.65;7.80;;;12.50;82.10;;;;;;5007176;28;20026;-67
2021/06/01 00:24:57;;;;;;;12.10;7.20;;;12.70;82.20;;;;;;5000584;28;20028;-67
2021/06/01 00:27:24;;;;;;;10.15;7.10;;;12.80;82.50;;;;;;5008019;28;20077;-68
2021/06/01 00:29:51;;;;;;;14.85;7.93;;;13.10;81.40;;;;;;5004218;28;20122;-70
2021/06/01 00:32:18;;;;;;;17.88;8.70;;;13.30;80.80;;;;;;5007675;28;20022;-67
2021/06/01 00:34:44;;;;;;;28.02;20.65;;;13.50;79.90;;;;;;5007038;28;20075;-66
2021/06/01 00:37:11;;;;;;;19.90;11.27;;;13.70;78.30;;;;;;5004016;28;20014;-67
2021/06/01 00:39:38;;;;;;;15.57;8.70;;;13.90;78.60;;;;;;5006900;28;20029;-64
2021/06/01 00:42:06;;;;;;;17.65;10.40;;;14.00;76.80;;;;;;5006699;28;20037;-69
2021/06/01 00:44:33;;;;;;;16.73;11.32;;;13.80;77.80;;;;;;5004552;28;20033;-69
2021/06/01 00:47:01;;;;;;;21.98;14.02;;;13.90;77.80;;;;;;5007155;28;20038;-65
2021/06/01 00:49:27;;;;;;;37.20;29.00;;;14.00;77.40;;;;;;5006570;28;20032;-66
2021/06/01 00:51:54;;;;;;;15.82;11.77;;;14.20;76.50;;;;;;5006040;28;20033;-68
2021/06/01 00:54:21;;;;;;;16.33;11.45;;;14.30;77.10;;;;;;5006920;28;20025;-65
2021/06/01 00:56:48;;;;;;;17.58;11.57;;;14.60;75.40;;;;;;5005686;28;20026;-64
2021/06/01 00:59:15;;;;;;;18.02;12.88;;;14.80;75.70;;;;;;5005934;28;20026;-65
2021/06/01 01:01:42;;;;;;;20.92;12.68;;;15.00;75.70;;;;;;5004980;28;20443;-63
2021/06/01 01:04:10;;;;;;;23.88;13.48;;;15.10;73.80;;;;;;5006109;28;20029;-65
2021/06/01 01:06:46;;;;;;;18.30;12.90;;;15.30;73.10;;;;;;5005647;28;20057;-66
2021/06/01 01:09:16;;;;;;;20.65;12.30;;;15.40;72.40;;;;;;5005721;28;20461;-64
2021/06/01 01:12:15;;;;;;;19.42;11.88;;;15.50;71.80;;;;;;5005903;28;20026;-66
2021/06/01 01:14:50;;;;;;;15.35;11.38;;;15.60;70.60;;;;;;5005801;28;20074;-65
2021/06/01 01:17:24;;;;;;;14.80;9.60;;;15.70;71.40;;;;;;5006285;28;20024;-67
2021/06/01 01:20:00;;;;;;;15.70;10.70;;;15.70;70.00;;;;;;5006279;28;20033;-66
2021/06/01 01:22:28;;;;;;;11.95;8.65;;;15.50;71.70;;;;;;5005656;28;20026;-65
2021/06/01 01:25:09;;;;;;;12.73;9.13;;;15.60;71.00;;;;;;5005239;28;20030;-65
2021/06/01 01:27:53;;;;;;;14.75;8.82;;;15.50;71.30;;;;;;5005181;28;20026;-68
2021/06/01 01:30:20;;;;;;;12.55;8.35;;;15.60;69.80;;;;;;5005073;28;20030;-67
2021/06/01 01:33:24;;;;;;;10.07;7.20;;;15.50;71.00;;;;;;5006297;28;20021;-64
2021/06/01 01:35:55;;;;;;;11.93;7.72;;;15.40;71.80;;;;;;5005372;28;20029;-69
2021/06/01 01:38:25;;;;;;;11.70;8.50;;;15.40;72.30;;;;;;5006044;28;20588;-66
2021/06/01 01:40:59;;;;;;;10.02;6.20;;;15.60;71.30;;;;;;5006007;28;20546;-66
2021/06/01 01:43:31;;;;;;;12.00;7.20;;;15.60;70.80;;;;;;5005945;28;20018;-70
2021/06/01 01:46:08;;;;;;;9.05;6.63;;;15.90;71.50;;;;;;5005154;28;20034;-69
2021/06/01 01:51:24;;;;;;;9.15;7.13;;;16.20;70.40;;;;;;5007042;28;20052;-68
2021/06/01 01:53:56;;;;;;;8.45;6.15;;;16.40;70.90;;;;;;5004127;28;20022;-63
2021/06/01 01:56:36;;;;;;;7.57;6.78;;;16.50;69.70;;;;;;5005887;28;20097;-65
2021/06/01 01:59:06;;;;;;;9.40;6.22;;;16.70;69.60;;;;;;5004191;28;20026;-64
2021/06/01 02:01:35;;;;;;;9.00;6.72;;;17.00;67.50;;;;;;5003382;28;20775;-65
2021/06/01 02:04:03;;;;;;;9.48;6.55;;;17.20;67.00;;;;;;5006029;28;20385;-65
2021/06/01 02:06:30;;;;;;;8.52;6.65;;;17.40;66.50;;;;;;5005630;28;20068;-64
2021/06/01 02:08:58;;;;;;;9.85;7.30;;;17.60;65.40;;;;;;5005643;28;20371;-66
2021/06/01 02:11:26;;;;;;;8.00;7.05;;;17.90;65.90;;;;;;5006262;28;20056;-64
2021/06/01 02:14:01;;;;;;;9.25;6.75;;;18.10;64.00;;;;;;5005097;28;20034;-65
2021/06/01 02:16:36;;;;;;;8.25;6.43;;;18.50;62.60;;;;;;5004695;28;20362;-66
2021/06/01 02:19:06;;;;;;;8.65;6.68;;;18.50;63.70;;;;;;5006583;28;20067;-71
2021/06/01 02:24:42;;;;;;;8.70;5.82;;;18.60;62.50;;;;;;5011538;28;20038;-66
2021/06/01 02:27:32;;;;;;;7.53;5.60;;;18.80;61.10;;;;;;5010924;28;20034;-64
2021/06/01 02:30:09;;;;;;;7.18;5.32;;;19.00;61.70;;;;;;5015169;28;20061;-66
2021/06/01 02:32:46;;;;;;;8.45;5.07;;;19.00;60.60;;;;;;5014104;28;20026;-67
2021/06/01 02:35:17;;;;;;;11.32;5.82;;;18.80;59.90;;;;;;5009233;28;20087;-64
2021/06/01 02:37:47;;;;;;;10.27;6.03;;;18.70;61.00;;;;;;5013799;28;20029;-69
2021/06/01 02:40:17;;;;;;;11.13;5.88;;;18.80;61.10;;;;;;5013221;28;20057;-66
2021/06/01 02:42:45;;;;;;;7.55;5.28;;;18.80;61.90;;;;;;5010789;28;20033;-66
2021/06/01 02:45:24;;;;;;;9.68;6.18;;;18.80;60.80;;;;;;5012849;28;20064;-67
2021/06/01 02:47:53;;;;;;;8.98;5.30;;;18.90;59.30;;;;;;5011811;28;20017;-67
2021/06/01 02:50:21;;;;;;;9.10;5.25;;;19.00;59.70;;;;;;5012013;28;20033;-68
2021/06/01 02:52:50;;;;;;;8.85;5.22;;;19.00;59.20;;;;;;5011622;28;20026;-69
2021/06/01 02:55:19;;;;;;;10.45;5.10;;;18.90;59.50;;;;;;5011907;28;20021;-65
2021/06/01 02:57:47;;;;;;;8.75;6.22;;;18.90;59.70;;;;;;5011034;28;20498;-67
2021/06/01 03:00:18;;;;;;;12.50;5.50;;;18.80;60.30;;;;;;5011237;28;20049;-64
2021/06/01 03:02:45;;;;;;;8.68;5.65;;;18.90;60.20;;;;;;5012372;28;20084;-66
2021/06/01 03:05:13;;;;;;;9.20;5.88;;;18.90;59.80;;;;;;5010912;28;20080;-69
2021/06/01 03:07:47;;;;;;;9.35;5.78;;;18.80;58.90;;;;;;5010131;28;20053;-67
2021/06/01 03:10:14;;;;;;;10.63;5.85;;;18.60;59.30;;;;;;5008366;28;20018;-68
2021/06/01 03:15:12;;;;;;;10.20;5.43;;;18.80;59.30;;;;;;5010678;28;20053;-67
2021/06/01 03:17:40;;;;;;;10.43;5.90;;;18.90;58.10;;;;;;5007029;28;20488;-65
2021/06/01 03:20:07;;;;;;;9.80;5.63;;;19.10;57.80;;;;;;5007765;28;20018;-63
2021/06/01 03:22:34;;;;;;;12.18;8.02;;;19.20;56.00;;;;;;5007670;28;20045;-66
2021/06/01 03:25:02;;;;;;;12.07;5.70;;;19.20;57.90;;;;;;5008662;28;20405;-66
2021/06/01 03:27:29;;;;;;;8.02;5.07;;;19.30;56.70;;;;;;5008474;28;20034;-68
2021/06/01 03:29:56;;;;;;;9.23;6.75;;;19.50;56.40;;;;;;5007816;28;20038;-64
2021/06/01 03:32:22;;;;;;;8.00;4.35;;;19.50;55.50;;;;;;5007660;28;20636;-68
2021/06/01 03:34:50;;;;;;;5.78;2.75;;;19.50;54.10;;;;;;5008604;28;20117;-68
2021/06/01 03:37:16;;;;;;;6.25;3.10;;;19.40;54.30;;;;;;5008029;28;20371;-70
2021/06/01 03:39:43;;;;;;;6.82;3.00;;;19.30;55.30;;;;;;5008487;28;20026;-64
2021/06/01 03:42:14;;;;;;;4.03;2.47;;;19.30;55.70;;;;;;5007958;28;20022;-65
2021/06/01 03:44:44;;;;;;;3.53;2.22;;;19.40;55.00;;;;;;5008685;28;20411;-65
2021/06/01 03:47:11;;;;;;;6.57;2.97;;;19.50;53.20;;;;;;5008406;28;20661;-64
2021/06/01 03:49:39;;;;;;;4.40;2.60;;;19.60;53.40;;;;;;5008713;28;20178;-64
2021/06/01 03:52:08;;;;;;;5.50;2.83;;;19.60;53.70;;;;;;5007925;28;20030;-63
2021/06/01 03:54:36;;;;;;;4.40;2.40;;;19.70;53.30;;;;;;5008666;28;20042;-65
2021/06/01 03:57:03;;;;;;;2.92;2.00;;;19.90;52.00;;;;;;5007827;28;20022;-75
2021/06/01 03:59:30;;;;;;;2.08;1.48;;;20.00;51.70;;;;;;5007872;28;20025;-64
2021/06/01 04:01:58;;;;;;;2.45;1.50;;;19.90;50.50;;;;;;5008252;28;20021;-71
2021/06/01 04:04:24;;;;;;;3.47;1.98;;;19.70;50.10;;;;;;5007242;28;20029;-73
2021/06/01 04:06:51;;;;;;;5.45;2.85;;;19.50;50.20;;;;;;5007593;28;20021;-66
2021/06/01 04:09:18;;;;;;;4.93;2.60;;;19.40;51.40;;;;;;5008611;28;20025;-64
2021/06/01 04:11:45;;;;;;;5.82;2.83;;;19.20;53.30;;;;;;5007443;28;20482;-65
2021/06/01 04:14:13;;;;;;;8.85;2.50;;;19.20;54.00;;;;;;5007932;28;20075;-72
2021/06/01 04:16:40;;;;;;;3.97;2.25;;;19.20;52.40;;;;;;5007834;28;20049;-73
2021/06/01 04:19:07;;;;;;;3.15;2.80;;;19.10;53.30;;;;;;5007219;28;20084;-65
2021/06/01 04:21:34;;;;;;;3.80;1.92;;;18.80;54.00;;;;;;5007274;28;20025;-65
2021/06/01 04:24:01;;;;;;;5.82;2.65;;;18.70;55.00;;;;;;4314437;28;10000718;-73
2021/06/01 04:26:29;;;;;;;2.70;1.88;;;18.60;55.20;;;;;;5005577;28;20400;-65
2021/06/01 04:28:59;;;;;;;3.55;1.80;;;18.40;55.90;;;;;;5054916;23;20421;-73
2021/06/01 04:31:26;;;;;;;2.97;1.80;;;18.40;55.20;;;;;;5022771;28;20035;-72
2021/06/01 04:33:52;;;;;;;3.47;2.05;;;18.20;55.40;;;;;;5023179;28;20383;-73
2021/06/01 04:36:19;;;;;;;3.47;1.83;;;18.10;56.30;;;;;;5022692;28;20556;-73
2021/06/01 04:38:46;;;;;;;5.40;2.00;;;17.90;57.40;;;;;;5023298;28;20017;-74
2021/06/01 04:41:13;;;;;;;3.70;2.00;;;17.80;57.80;;;;;;5025602;28;20048;-74
2021/06/01 04:43:40;;;;;;;4.85;2.00;;;17.80;58.00;;;;;;5024864;28;20531;-73
2021/06/01 04:46:07;;;;;;;3.88;2.10;;;17.70;56.50;;;;;;5025566;28;20025;-66
2021/06/01 04:48:34;;;;;;;2.55;1.85;;;17.60;57.60;;;;;;5025908;28;20140;-66
2021/06/01 04:51:01;;;;;;;4.15;1.55;;;17.50;58.50;;;;;;5025116;28;20025;-73
2021/06/01 04:53:28;;;;;;;4.22;1.60;;;17.40;58.60;;;;;;5025345;28;20434;-66
2021/06/01 04:55:55;;;;;;;1.55;1.30;;;17.40;60.30;;;;;;5026029;28;20557;-65
2021/06/01 04:58:22;;;;;;;4.05;1.88;;;17.40;58.60;;;;;;5025471;28;20016;-65
2021/06/01 05:00:49;;;;;;;4.65;1.58;;;17.50;59.60;;;;;;5025557;28;20022;-73
2021/06/01 05:03:16;;;;;;;2.40;1.73;;;17.50;60.70;;;;;;5024194;28;20021;-65
2021/06/01 05:05:43;;;;;;;4.88;1.92;;;17.40;61.60;;;;;;5025341;28;20025;-73
2021/06/01 05:08:10;;;;;;;3.95;2.05;;;17.30;61.50;;;;;;5025567;28;20025;-66
2021/06/01 05:10:36;;;;;;;7.82;2.13;;;17.30;61.10;;;;;;5023824;28;20028;-73
2021/06/01 05:13:03;;;;;;;5.95;2.30;;;17.30;61.10;;;;;;5024174;28;20414;-78
2021/06/01 05:15:30;;;;;;;6.53;2.63;;;17.30;60.80;;;;;;5027501;28;20485;-66
2021/06/01 05:17:58;;;;;;;6.13;2.22;;;17.40;60.70;;;;;;5028480;28;20025;-67
2021/06/01 05:20:25;;;;;;;4.78;2.20;;;17.20;61.30;;;;;;5026875;28;20123;-68
2021/06/01 05:22:52;;;;;;;6.63;2.75;;;17.10;61.70;;;;;;5025686;28;20052;-68
2021/06/01 05:25:19;;;;;;;5.38;2.08;;;17.10;62.90;;;;;;5033660;28;20064;-70
2021/06/01 05:27:46;;;;;;;3.03;2.20;;;17.00;63.50;;;;;;5031129;28;20034;-70
2021/06/01 05:30:20;;;;;;;2.90;1.70;;;17.00;62.80;;;;;;5027362;28;20036;-66
2021/06/01 05:35:26;;;;;;;5.65;2.25;;;16.90;63.30;;;;;;5021837;28;20041;-66
2021/06/01 05:37:53;;;;;;;4.82;1.75;;;16.90;63.30;;;;;;5023125;28;20021;-67
2021/06/01 05:40:20;;;;;;;3.08;2.08;;;16.90;63.90;;;;;;5022477;28;20069;-70
2021/06/01 05:42:47;;;;;;;6.10;2.20;;;16.80;64.50;;;;;;5024653;28;20071;-70
2021/06/01 05:45:14;;;;;;;3.92;2.35;;;16.80;64.10;;;;;;5022075;28;20044;-67
2021/06/01 05:47:41;;;;;;;3.65;2.00;;;16.80;64.80;;;;;;5025554;28;20060;-71
2021/06/01 05:50:08;;;;;;;6.50;2.05;;;16.80;65.60;;;;;;5023569;28;20052;-67
2021/06/01 05:52:36;;;;;;;5.15;2.70;;;16.80;65.50;;;;;;5019743;28;20022;-68
2021/06/01 05:55:06;;;;;;;5.65;2.47;;;16.70;65.60;;;;;;5027093;28;20062;-66
2021/06/01 05:57:33;;;;;;;5.57;2.97;;;16.70;66.40;;;;;;5019836;28;20021;-69
2021/06/01 06:00:01;;;;;;;4.97;2.20;;;16.70;66.20;;;;;;5026456;28;20108;-67
2021/06/01 06:02:27;;;;;;;3.25;1.90;;;16.60;67.30;;;;;;5025738;28;20374;-68
2021/06/01 06:04:54;;;;;;;6.05;2.30;;;16.50;67.70;;;;;;5033743;28;20032;-68
2021/06/01 06:07:21;;;;;;;5.25;2.10;;;16.50;66.50;;;;;;5029775;28;20104;-67
2021/06/01 06:09:48;;;;;;;4.20;2.47;;;16.40;67.00;;;;;;5029265;28;20584;-64
2021/06/01 06:12:16;;;;;;;6.97;2.85;;;16.40;67.40;;;;;;5022656;28;20025;-68
2021/06/01 06:14:43;;;;;;;11.45;3.22;;;16.50;66.80;;;;;;5026910;28;20379;-65
2021/06/01 06:17:42;;;;;;;9.85;3.13;;;16.60;66.80;;;;;;5027061;28;20049;-67
2021/06/01 06:20:10;;;;;;;12.10;3.08;;;16.60;65.00;;;;;;5021985;28;20052;-69
2021/06/01 06:22:37;;;;;;;20.98;4.38;;;16.60;66.00;;;;;;5024485;28;20030;-69
2021/06/01 06:25:06;;;;;;;18.08;3.83;;;16.50;65.30;;;;;;5027799;28;20050;-67
2021/06/01 06:27:34;;;;;;;24.20;4.35;;;16.40;66.10;;;;;;5027891;28;20264;-68
2021/06/01 06:30:03;;;;;;;17.23;4.07;;;16.30;66.60;;;;;;5027907;28;20046;-67
2021/06/01 06:32:30;;;;;;;17.35;3.92;;;16.20;67.70;;;;;;5027923;28;20173;-69
2021/06/01 06:35:07;;;;;;;17.05;4.05;;;16.20;67.60;;;;;;5026008;28;20033;-68
2021/06/01 06:37:34;;;;;;;22.40;5.30;;;16.10;68.60;;;;;;5029063;28;20030;-68
2021/06/01 06:40:02;;;;;;;16.13;4.20;;;15.90;69.80;;;;;;5024594;28;20318;-68
2021/06/01 06:42:32;;;;;;;21.40;7.10;;;15.70;70.20;;;;;;5020354;28;20402;-68
2021/06/01 06:44:59;;;;;;;15.02;4.55;;;15.60;70.70;;;;;;5033035;28;20094;-66
2021/06/01 06:47:42;;;;;;;15.48;4.10;;;15.50;71.00;;;;;;5025945;28;20036;-69
2021/06/01 06:50:14;;;;;;;14.15;3.83;;;15.40;71.70;;;;;;5021030;28;20433;-68
2021/06/01 06:52:42;;;;;;;19.85;4.63;;;15.30;72.20;;;;;;5024780;28;20033;-69
2021/06/01 06:55:10;;;;;;;14.20;4.40;;;15.20;74.50;;;;;;5029722;28;20017;-67
2021/06/01 06:57:39;;;;;;;12.88;3.67;;;15.10;75.50;;;;;;5030261;28;20529;-68
2021/06/01 07:00:11;;;;;;;8.45;3.78;;;15.00;75.10;;;;;;5025408;28;20026;-66
2021/06/01 07:02:39;;;;;;;14.45;4.18;;;14.80;74.90;;;;;;5028047;28;20397;-69
2021/06/01 07:05:07;;;;;;;9.68;3.65;;;14.60;75.30;;;;;;5036387;28;20037;-69
2021/06/01 07:07:34;;;;;;;17.85;3.97;;;14.40;75.10;;;;;;5027411;28;20029;-68
2021/06/01 07:10:01;;;;;;;10.27;4.13;;;14.30;75.80;;;;;;5027505;28;20140;-70
2021/06/01 07:12:28;;;;;;;14.73;5.15;;;14.30;76.80;;;;;;5026137;28;20390;-65
2021/06/01 07:15:29;;;;;;;10.48;3.72;;;14.10;76.90;;;;;;5022990;28;20720;-67
2021/06/01 07:18:00;;;;;;;11.85;4.22;;;14.00;78.20;;;;;;5026128;28;20560;-68
2021/06/01 07:20:31;;;;;;;9.13;4.10;;;14.00;78.80;;;;;;5024662;28;20025;-67
2021/06/01 07:23:00;;;;;;;11.13;4.95;;;14.00;80.40;;;;;;5027743;28;20041;-64
2021/06/01 07:25:27;;;;;;;9.82;4.30;;;14.00;81.10;;;;;;5024211;28;20025;-67
2021/06/01 07:27:55;;;;;;;12.32;5.25;;;13.90;80.00;;;;;;5024396;28;20033;-71
2021/06/01 07:30:23;;;;;;;12.18;4.50;;;13.90;80.40;;;;;;5022295;28;20045;-66
2021/06/01 07:32:51;;;;;;;18.90;4.82;;;13.80;79.70;;;;;;5023995;28;20024;-67
2021/06/01 07:35:19;;;;;;;19.50;5.45;;;13.90;79.10;;;;;;5023330;28;20038;-67
2021/06/01 07:37:46;;;;;;;12.55;5.25;;;13.80;79.20;;;;;;5025703;28;21597;-65
2021/06/01 07:40:13;;;;;;;15.00;5.32;;;13.60;79.60;;;;;;5024790;28;20155;-67
2021/06/01 07:42:40;;;;;;;20.02;5.82;;;13.50;81.40;;;;;;5020527;28;20715;-73
2021/06/01 07:45:08;;;;;;;12.00;4.55;;;13.30;81.20;;;;;;5024393;28;20460;-72
2021/06/01 07:47:35;;;;;;;15.15;5.53;;;13.30;82.30;;;;;;5023144;28;20088;-64
2021/06/01 07:50:04;;;;;;;17.23;5.10;;;13.30;83.40;;;;;;5022861;28;20054;-70
2021/06/01 07:52:31;;;;;;;15.23;4.43;;;13.50;89.70;;;;;;5025981;28;20140;-67
2021/06/01 07:54:58;;;;;;;14.18;5.10;;;13.70;88.50;;;;;;5022037;28;20348;-65
2021/06/01 07:57:25;;;;;;;15.30;8.40;;;13.80;87.00;;;;;;5019926;28;20044;-64
2021/06/01 07:59:52;;;;;;;9.38;4.40;;;13.60;85.10;;;;;;5019484;28;20116;-67
2021/06/01 08:02:19;;;;;;;6.93;4.22;;;13.60;86.20;;;;;;5016312;28;20033;-66
2021/06/01 08:04:46;;;;;;;13.90;4.97;;;13.60;84.20;;;;;;5018186;28;20140;-65
2021/06/01 08:07:13;;;;;;;15.60;5.60;;;13.50;83.60;;;;;;5020800;28;20029;-66
2021/06/01 08:09:40;;;;;;;10.35;4.43;;;13.40;85.00;;;;;;5020039;28;20856;-67
2021/06/01 08:12:08;;;;;;;10.18;4.05;;;13.60;86.80;;;;;;5022381;28;20071;-66
2021/06/01 08:14:35;;;;;;;16.88;5.55;;;13.70;87.10;;;;;;5022361;28;20029;-65
2021/06/01 08:17:03;;;;;;;14.18;5.90;;;13.70;84.20;;;;;;5022567;28;20076;-65
2021/06/01 08:19:33;;;;;;;16.40;4.95;;;13.60;82.10;;;;;;5024935;28;20051;-66
2021/06/01 08:22:46;;;;;;;14.88;5.00;;;13.50;83.20;;;;;;5026211;28;20118;-71
2021/06/01 08:24:47;;;;;;;9.55;4.32;;;13.50;83.50;;;;;;5014749;28;20076;-68
2021/06/01 08:27:14;;;;;;;21.00;6.20;;;13.40;83.10;;;;;;5025416;28;20524;-72
2021/06/01 08:29:42;;;;;;;20.00;6.05;;;13.50;85.40;;;;;;5038582;28;20712;-63
2021/06/01 08:32:09;;;;;;;17.00;5.47;;;13.40;83.70;;;;;;5023084;28;20037;-70
2021/06/01 08:34:36;;;;;;;18.10;5.57;;;13.40;84.00;;;;;;5024147;28;20469;-65
2021/06/01 08:37:03;;;;;;;16.08;5.15;;;13.30;84.10;;;;;;5024079;28;20521;-64
2021/06/01 08:39:30;;;;;;;22.60;5.60;;;13.30;83.70;;;;;;5024379;28;20061;-63
2021/06/01 08:41:57;;;;;;;17.88;5.18;;;13.30;85.30;;;;;;5022749;28;20079;-69
2021/06/01 08:44:27;;;;;;;15.95;4.35;;;13.40;82.60;;;;;;5026246;28;20029;-64
2021/06/01 08:46:56;;;;;;;13.90;5.05;;;13.40;83.30;;;;;;5023802;28;20518;-65
2021/06/01 08:49:24;;;;;;;14.32;4.38;;;13.30;83.70;;;;;;5020826;28;20036;-64
2021/06/01 08:51:51;;;;;;;18.15;5.38;;;13.20;83.30;;;;;;5024646;28;20040;-64
2021/06/01 08:54:19;;;;;;;16.50;5.30;;;13.10;83.30;;;;;;5023426;28;20026;-64
2021/06/01 08:56:46;;;;;;;21.95;5.30;;;13.00;84.40;;;;;;5023520;28;20021;-63
2021/06/01 08:59:13;;;;;;;22.98;5.82;;;12.90;84.50;;;;;;5025483;28;20052;-64
2021/06/01 09:01:42;;;;;;;15.00;5.95;;;12.80;84.30;;;;;;5023690;28;20026;-65
2021/06/01 09:04:12;;;;;;;21.25;7.55;;;12.80;84.50;;;;;;5022817;28;20059;-64
2021/06/01 09:06:45;;;;;;;17.27;6.30;;;12.90;84.40;;;;;;5024955;28;20259;-65
2021/06/01 09:23:06;;;;;;;14.48;6.22;;;12.90;86.70;;;;;;5090516;23;20096;-63
2021/06/01 09:28:05;;;;;;;9.40;6.38;;;12.70;85.80;;;;;;5008144;28;20088;-65
2021/06/01 09:30:35;;;;;;;12.48;5.93;;;12.60;87.40;;;;;;5010308;28;20602;-64
2021/06/01 09:33:04;;;;;;;13.68;6.82;;;12.80;90.50;;;;;;5010996;28;20108;-66
2021/06/01 09:35:42;;;;;;;14.15;6.70;;;12.70;89.40;;;;;;5006145;28;20544;-63
2021/06/01 09:38:09;;;;;;;12.88;6.95;;;12.70;90.00;;;;;;5007082;28;20075;-66
2021/06/01 09:40:37;;;;;;;11.23;6.75;;;12.60;87.90;;;;;;5011621;28;20522;-63
2021/06/01 09:43:14;;;;;;;13.07;7.22;;;12.40;87.30;;;;;;5009693;28;20529;-67
2021/06/01 09:45:43;;;;;;;9.68;6.97;;;12.30;87.00;;;;;;5003379;28;20022;-65
2021/06/01 09:48:11;;;;;;;10.95;6.65;;;12.10;87.10;;;;;;5007432;28;20092;-66
2021/06/01 09:53:31;;;;;;;12.18;7.93;;;11.80;88.70;;;;;;5003293;28;20109;-64
2021/06/01 09:55:59;;;;;;;10.13;7.32;;;11.70;89.50;;;;;;5002911;28;20279;-66
2021/06/01 09:58:26;;;;;;;20.65;11.50;;;11.60;90.00;;;;;;5001171;28;20058;-64
2021/06/01 10:00:54;;;;;;;14.05;8.48;;;11.50;90.40;;;;;;5006767;28;20141;-65
2021/06/01 10:03:24;;;;;;;15.27;9.27;;;11.50;90.30;;;;;;5002219;28;20104;-64
2021/06/01 10:05:55;;;;;;;17.92;8.10;;;11.40;90.20;;;;;;5004325;28;20156;-65
2021/06/01 10:08:27;;;;;;;16.58;10.20;;;11.30;90.60;;;;;;5002184;28;20477;-64
2021/06/01 10:10:55;;;;;;;15.25;8.35;;;11.20;90.70;;;;;;5004373;28;20411;-64
2021/06/01 10:13:24;;;;;;;15.30;9.55;;;11.20;91.10;;;;;;5004174;28;20029;-65
2021/06/01 10:15:53;;;;;;;26.65;15.90;;;11.10;91.30;;;;;;5004723;28;20469;-66
2021/06/01 10:18:20;;;;;;;16.55;10.77;;;11.00;91.20;;;;;;5007019;28;20026;-65
2021/06/01 10:20:50;;;;;;;18.60;10.80;;;10.90;91.40;;;;;;5003279;28;20061;-65
2021/06/01 10:23:23;;;;;;;14.35;9.32;;;10.80;91.40;;;;;;5007156;28;20105;-66
2021/06/01 10:25:50;;;;;;;12.50;8.50;;;10.70;91.80;;;;;;4999639;28;20026;-67
2021/06/01 10:28:30;;;;;;;21.30;8.30;;;10.60;91.80;;;;;;5002831;28;20451;-65
2021/06/01 10:30:57;;;;;;;12.77;8.73;;;10.50;91.90;;;;;;5005000;28;20034;-65
2021/06/01 10:33:27;;;;;;;12.40;8.68;;;10.40;92.20;;;;;;5005682;28;20025;-66
2021/06/01 10:50:58;;;;;;;19.52;10.45;;;10.30;93.10;;;;;;5000103;28;20048;-65
2021/06/01 10:53:27;;;;;;;19.25;10.68;;;10.20;92.60;;;;;;5007821;28;20490;-63
2021/06/01 10:55:59;;;;;;;19.30;11.57;;;10.00;92.90;;;;;;5006473;28;20022;-64
2021/06/01 10:58:46;;;;;;;18.77;10.68;;;9.90;93.00;;;;;;5006108;28;20036;-66
2021/06/01 11:04:36;;;;;;;29.70;12.40;;;9.80;93.70;;;;;;5007937;28;20091;-66
2021/06/01 11:09:37;;;;;;;21.33;14.05;;;9.70;93.70;;;;;;5004945;28;20033;-66
2021/06/01 11:12:35;;;;;;;22.15;13.60;;;9.80;94.00;;;;;;4661832;28;10000445;-67
2021/06/01 11:15:18;;;;;;;23.50;14.45;;;9.90;93.90;;;;;;5009930;28;20123;-64
2021/06/01 11:17:45;;;;;;;26.27;15.02;;;9.80;94.00;;;;;;5003303;28;20743;-65
2021/06/01 11:33:55;;;;;;;16.90;14.30;;;10.10;94.60;;;;;;5010197;28;20566;-65
2021/06/01 11:36:22;;;;;;;24.58;14.10;;;10.00;94.70;;;;;;5012094;28;20118;-65
2021/06/01 11:38:53;;;;;;;18.27;14.40;;;9.90;94.80;;;;;;5005532;28;20053;-65
2021/06/01 11:43:52;;;;;;;21.75;14.77;;;9.70;95.20;;;;;;5001460;28;20049;-67
2021/06/01 11:51:47;;;;;;;22.52;14.48;;;9.60;95.30;;;;;;5006302;28;20406;-69
2021/06/01 11:54:16;;;;;;;20.13;14.45;;;9.60;95.40;;;;;;5005417;28;20037;-63
2021/06/01 12:04:45;;;;;;;19.83;15.40;;;9.50;95.30;;;;;;5005863;28;20026;-65
2021/06/01 12:18:19;;;;;;;24.73;17.67;;;9.20;95.50;;;;;;5001346;28;20083;-66
2021/06/01 12:20:46;;;;;;;23.38;16.05;;;9.20;95.70;;;;;;5000740;28;20018;-66
2021/06/01 12:23:36;;;;;;;24.38;15.07;;;9.10;95.80;;;;;;4998199;28;20045;-65
2021/06/01 12:31:48;;;;;;;19.58;14.65;;;9.10;96.10;;;;;;5006929;28;20053;-66
2021/06/01 12:34:20;;;;;;;;;;;9.10;96.10;;;;;;5015463;28;20174;-70
2021/06/01 12:46:17;;;;;;;23.17;12.88;;;9.30;95.90;;;;;;5005600;28;20040;-65
2021/06/01 13:19:24;;;;;;;21.27;15.00;;;9.20;95.90;;;;;;5000421;28;20045;-67
2021/06/01 13:21:59;;;;;;;24.87;15.23;;;9.30;95.30;;;;;;4999569;28;20096;-66
2021/06/01 13:30:46;;;;;;;19.65;14.38;;;9.20;96.10;;;;;;4998717;28;20053;-66
2021/06/01 13:38:50;;;;;;;18.30;13.68;;;9.00;96.30;;;;;;5003593;28;20493;-66
2021/06/01 13:46:49;;;;;;;21.67;15.10;;;8.80;96.60;;;;;;4999534;28;20061;-66
2021/06/01 13:49:27;;;;;;;19.88;15.05;;;8.80;96.20;;;;;;5001032;28;20131;-67
2021/06/01 14:36:00;;;;;;;27.80;22.30;;;8.90;97.40;;;;;;5008887;28;20470;-66
2021/06/01 15:09:34;;;;;;;20.80;18.42;;;9.00;97.90;;;;;;5012069;28;20045;-65
2021/06/01 15:49:51;;;;;;;26.85;19.08;;;8.70;97.20;;;;;;5021683;28;20120;-68
2021/06/01 15:55:34;;;;;;;21.55;18.38;;;8.60;97.60;;;;;;5013516;28;20060;-66
2021/06/01 16:14:43;;;;;;;18.90;15.75;;;8.50;97.60;;;;;;5004639;28;20080;-69
2021/06/01 16:32:02;;;;;;;18.52;14.80;;;8.30;97.20;;;;;;5006106;28;20445;-68
2021/06/01 16:42:34;;;;;;;22.33;14.40;;;7.90;97.60;;;;;;5020787;28;20044;-66
2021/06/01 17:07:13;;;;;;;;;;;7.80;98.20;;;;;;5015625;28;20040;-70
2021/06/01 17:12:49;;;;;;;20.63;14.65;;;7.80;98.00;;;;;;5005026;28;20096;-67
2021/06/01 17:15:18;;;;;;;21.50;14.23;;;7.80;98.00;;;;;;5010158;28;20028;-66
2021/06/01 17:17:53;;;;;;;19.45;14.48;;;7.80;98.00;;;;;;5016324;28;20030;-66
2021/06/01 17:23:38;;;;;;;19.52;14.60;;;7.80;97.90;;;;;;5018642;28;20110;-69
2021/06/01 17:37:02;;;;;;;18.73;14.65;;;7.50;98.10;;;;;;5009943;28;20103;-67
2021/06/01 17:39:30;;;;;;;18.05;14.75;;;7.40;98.20;;;;;;5010118;28;20391;-67
2021/06/01 17:42:00;;;;;;;23.00;15.90;;;7.40;98.10;;;;;;5017181;28;20021;-66
2021/06/01 17:44:28;;;;;;;19.50;14.55;;;7.50;98.20;;;;;;5010324;28;20025;-69
2021/06/01 17:47:03;;;;;;;18.98;14.70;;;7.60;97.90;;;;;;5012157;28;20049;-69
2021/06/01 17:49:31;;;;;;;19.88;15.52;;;7.60;97.80;;;;;;5015017;28;20115;-66
2021/06/01 17:52:00;;;;;;;21.90;15.52;;;7.80;98.20;;;;;;5021565;28;20452;-64
2021/06/01 17:54:31;;;;;;;18.92;14.13;;;7.80;97.50;;;;;;5027068;28;20021;-67
2021/06/01 17:56:59;;;;;;;16.05;13.50;;;7.80;97.10;;;;;;5013727;28;20434;-69
2021/06/01 17:59:27;;;;;;;23.58;15.02;;;7.60;97.40;;;;;;5013254;28;20032;-67
2021/06/01 18:01:57;;;;;;;21.08;15.15;;;7.50;97.40;;;;;;5017450;28;20037;-67
2021/06/01 18:04:26;;;;;;;25.70;15.18;;;7.30;97.60;;;;;;5014404;28;20512;-68
2021/06/01 18:06:59;;;;;;;27.98;16.60;;;7.30;98.10;;;;;;5015117;28;20483;-70
2021/06/01 18:09:52;;;;;;;22.45;15.75;;;7.40;98.40;;;;;;5025584;28;20032;-71
2021/06/01 19:11:45;;;;;;;18.83;10.95;;;6.50;97.60;;;;;;5018364;28;20117;-67
2021/06/01 19:50:17;;;;;;;36.67;21.45;;;6.00;98.10;;;;;;5011623;28;20064;-65
2021/06/01 19:52:50;;;;;;;39.67;23.52;;;6.20;98.50;;;;;;4664385;28;9999992;-68
2021/06/01 19:55:19;;;;;;;36.38;21.48;;;6.30;98.40;;;;;;5014259;28;20029;-66
2021/06/01 19:57:49;;;;;;;40.92;21.00;;;6.40;98.40;;;;;;5008349;28;20022;-69
2021/06/01 20:00:17;;;;;;;39.28;19.25;;;6.30;98.20;;;;;;5011276;28;20047;-68
2021/06/01 20:02:45;;;;;;;37.47;18.17;;;6.30;98.30;;;;;;5010068;28;20026;-68
2021/06/01 20:05:15;;;;;;;33.00;16.23;;;6.30;98.30;;;;;;5008878;28;20394;-69
2021/06/01 20:07:42;;;;;;;32.70;16.73;;;6.20;98.20;;;;;;5007909;28;20045;-66
2021/06/01 20:10:12;;;;;;;29.73;14.75;;;6.20;98.20;;;;;;5007865;28;20081;-69
2021/06/01 20:12:40;;;;;;;24.40;13.32;;;6.20;98.20;;;;;;5007142;28;20053;-65
2021/06/01 20:15:10;;;;;;;24.98;12.35;;;6.20;98.30;;;;;;5019289;28;20068;-70
2021/06/01 20:17:42;;;;;;;21.55;10.70;;;6.20;98.20;;;;;;5008404;28;20101;-66